sensor_id;sensor_type;location;lat;lon;timestamp;temperature;humidity
20284;DHT22;10301;50.832;4.080;2023-04-30T00:00:36;10.30;22.60
20284;DHT22;10301;50.832;4.080;2023-04-30T00:03:02;10.30;22.60
20284;DHT22;10301;50.832;4.080;2023-04-30T00:05:28;10.20;22.60
20284;DHT22;10301;50.832;4.080;2023-04-30T00:07:54;10.10;24.00
20284;DHT22;10301;50.832;4.080;2023-04-30T00:10:19;9.80;47.30
20284;DHT22;10301;50.832;4.080;2023-04-30T00:12:45;9.70;54.50
20284;DHT22;10301;50.832;4.080;2023-04-30T00:15:11;9.80;50.80
20284;DHT22;10301;50.832;4.080;2023-04-30T00:17:36;9.90;46.20
20284;DHT22;10301;50.832;4.080;2023-04-30T00:20:03;9.80;46.20
20284;DHT22;10301;50.832;4.080;2023-04-30T00:22:28;9.90;46.20
20284;DHT22;10301;50.832;4.080;2023-04-30T00:24:54;10.00;33.90
20284;DHT22;10301;50.832;4.080;2023-04-30T00:27:20;9.90;27.30
20284;DHT22;10301;50.832;4.080;2023-04-30T00:29:46;9.90;31.30
20284;DHT22;10301;50.832;4.080;2023-04-30T00:32:11;10.00;29.10
20284;DHT22;10301;50.832;4.080;2023-04-30T00:34:37;10.00;22.60
20284;DHT22;10301;50.832;4.080;2023-04-30T00:37:02;9.90;24.70
20284;DHT22;10301;50.832;4.080;2023-04-30T00:39:28;10.00;18.90
20284;DHT22;10301;50.832;4.080;2023-04-30T00:41:54;9.90;16.90
20284;DHT22;10301;50.832;4.080;2023-04-30T00:44:20;9.90;14.80
20284;DHT22;10301;50.832;4.080;2023-04-30T00:46:45;9.70;17.10
20284;DHT22;10301;50.832;4.080;2023-04-30T00:49:11;9.60;20.60
20284;DHT22;10301;50.832;4.080;2023-04-30T00:51:39;9.70;25.00
20284;DHT22;10301;50.832;4.080;2023-04-30T00:54:06;9.70;22.40
20284;DHT22;10301;50.832;4.080;2023-04-30T00:56:32;9.70;18.80
20284;DHT22;10301;50.832;4.080;2023-04-30T00:58:58;9.70;18.20
20284;DHT22;10301;50.832;4.080;2023-04-30T01:01:25;9.90;1.00
20284;DHT22;10301;50.832;4.080;2023-04-30T01:03:53;10.00;1.00
20284;DHT22;10301;50.832;4.080;2023-04-30T01:06:19;9.90;1.00
20284;DHT22;10301;50.832;4.080;2023-04-30T01:08:45;9.80;1.00
20284;DHT22;10301;50.832;4.080;2023-04-30T01:14:16;9.80;1.00
20284;DHT22;10301;50.832;4.080;2023-04-30T01:16:53;9.70;1.00
20284;DHT22;10301;50.832;4.080;2023-04-30T01:19:42;9.70;1.00
20284;DHT22;10301;50.832;4.080;2023-04-30T01:22:13;9.60;1.00
20284;DHT22;10301;50.832;4.080;2023-04-30T01:28:30;9.60;1.00
20284;DHT22;10301;50.832;4.080;2023-04-30T01:30:38;9.60;1.00
20284;DHT22;10301;50.832;4.080;2023-04-30T01:33:05;9.60;1.00
20284;DHT22;10301;50.832;4.080;2023-04-30T01:38:24;9.40;2.90
20284;DHT22;10301;50.832;4.080;2023-04-30T01:40:57;9.30;5.10
20284;DHT22;10301;50.832;4.080;2023-04-30T01:46:21;9.20;12.70
20284;DHT22;10301;50.832;4.080;2023-04-30T01:51:43;9.30;2.60
20284;DHT22;10301;50.832;4.080;2023-04-30T01:54:22;9.30;3.60
20284;DHT22;10301;50.832;4.080;2023-04-30T01:57:04;9.30;4.00
20284;DHT22;10301;50.832;4.080;2023-04-30T01:59:33;9.40;1.00
20284;DHT22;10301;50.832;4.080;2023-04-30T02:01:59;9.30;1.20
20284;DHT22;10301;50.832;4.080;2023-04-30T02:04:25;9.40;1.00
20284;DHT22;10301;50.832;4.080;2023-04-30T02:06:51;9.20;1.00
20284;DHT22;10301;50.832;4.080;2023-04-30T02:09:17;9.00;1.00
20284;DHT22;10301;50.832;4.080;2023-04-30T02:11:42;9.00;8.30
20284;DHT22;10301;50.832;4.080;2023-04-30T02:14:08;9.10;1.00
20284;DHT22;10301;50.832;4.080;2023-04-30T02:16:34;9.00;1.00
20284;DHT22;10301;50.832;4.080;2023-04-30T02:19:00;9.00;5.50
20284;DHT22;10301;50.832;4.080;2023-04-30T02:21:26;9.00;2.90
20284;DHT22;10301;50.832;4.080;2023-04-30T02:23:52;8.90;10.40
20284;DHT22;10301;50.832;4.080;2023-04-30T02:26:18;9.00;12.30
20284;DHT22;10301;50.832;4.080;2023-04-30T02:28:45;9.00;9.00
20284;DHT22;10301;50.832;4.080;2023-04-30T02:31:11;8.80;11.20
20284;DHT22;10301;50.832;4.080;2023-04-30T02:33:37;8.80;18.80
20284;DHT22;10301;50.832;4.080;2023-04-30T02:36:02;8.60;22.80
20284;DHT22;10301;50.832;4.080;2023-04-30T02:38:28;8.40;31.00
20284;DHT22;10301;50.832;4.080;2023-04-30T02:40:54;8.50;46.20
20284;DHT22;10301;50.832;4.080;2023-04-30T02:43:19;8.50;36.00
20284;DHT22;10301;50.832;4.080;2023-04-30T02:45:45;8.40;43.80
20284;DHT22;10301;50.832;4.080;2023-04-30T02:48:11;8.50;43.30
20284;DHT22;10301;50.832;4.080;2023-04-30T02:50:36;8.50;41.00
20284;DHT22;10301;50.832;4.080;2023-04-30T02:53:02;8.50;40.90
20284;DHT22;10301;50.832;4.080;2023-04-30T02:55:28;8.40;42.70
20284;DHT22;10301;50.832;4.080;2023-04-30T02:57:53;8.50;43.80
20284;DHT22;10301;50.832;4.080;2023-04-30T03:00:19;8.50;40.20
20284;DHT22;10301;50.832;4.080;2023-04-30T03:02:45;8.50;39.80
20284;DHT22;10301;50.832;4.080;2023-04-30T03:05:10;8.50;41.90
20284;DHT22;10301;50.832;4.080;2023-04-30T03:07:36;8.50;39.40
20284;DHT22;10301;50.832;4.080;2023-04-30T03:10:02;8.80;29.00
20284;DHT22;10301;50.832;4.080;2023-04-30T03:12:28;9.00;13.90
20284;DHT22;10301;50.832;4.080;2023-04-30T03:14:53;9.00;3.50
20284;DHT22;10301;50.832;4.080;2023-04-30T03:17:19;8.90;14.40
20284;DHT22;10301;50.832;4.080;2023-04-30T03:19:45;8.70;10.80
20284;DHT22;10301;50.832;4.080;2023-04-30T03:22:10;8.90;9.60
20284;DHT22;10301;50.832;4.080;2023-04-30T03:24:36;9.00;1.00
20284;DHT22;10301;50.832;4.080;2023-04-30T03:27:02;9.00;1.00
20284;DHT22;10301;50.832;4.080;2023-04-30T03:29:28;9.00;1.00
20284;DHT22;10301;50.832;4.080;2023-04-30T03:31:53;8.90;1.00
20284;DHT22;10301;50.832;4.080;2023-04-30T03:34:19;8.70;3.50
20284;DHT22;10301;50.832;4.080;2023-04-30T03:36:45;8.60;5.90
20284;DHT22;10301;50.832;4.080;2023-04-30T03:39:10;8.20;20.10
20284;DHT22;10301;50.832;4.080;2023-04-30T03:41:36;8.00;44.20
20284;DHT22;10301;50.832;4.080;2023-04-30T03:44:02;7.90;49.30
20284;DHT22;10301;50.832;4.080;2023-04-30T03:46:27;8.20;40.10
20284;DHT22;10301;50.832;4.080;2023-04-30T03:48:53;8.30;25.40
20284;DHT22;10301;50.832;4.080;2023-04-30T03:51:19;8.20;31.80
20284;DHT22;10301;50.832;4.080;2023-04-30T03:53:45;8.30;29.20
20284;DHT22;10301;50.832;4.080;2023-04-30T03:56:11;8.30;25.70
20284;DHT22;10301;50.832;4.080;2023-04-30T03:58:37;8.20;25.70
20284;DHT22;10301;50.832;4.080;2023-04-30T04:01:03;8.10;29.70
20284;DHT22;10301;50.832;4.080;2023-04-30T04:03:30;8.00;44.00
20284;DHT22;10301;50.832;4.080;2023-04-30T04:05:55;8.10;37.00
20284;DHT22;10301;50.832;4.080;2023-04-30T04:08:21;8.30;29.90
20284;DHT22;10301;50.832;4.080;2023-04-30T04:10:47;8.30;26.50
20284;DHT22;10301;50.832;4.080;2023-04-30T04:13:12;8.40;18.70
20284;DHT22;10301;50.832;4.080;2023-04-30T04:15:38;8.40;15.70
20284;DHT22;10301;50.832;4.080;2023-04-30T04:18:04;8.30;18.20
20284;DHT22;10301;50.832;4.080;2023-04-30T04:20:32;7.80;27.30
20284;DHT22;10301;50.832;4.080;2023-04-30T04:22:58;7.60;48.10
20284;DHT22;10301;50.832;4.080;2023-04-30T04:25:23;7.80;47.50
20284;DHT22;10301;50.832;4.080;2023-04-30T04:27:49;7.80;45.80
20284;DHT22;10301;50.832;4.080;2023-04-30T04:30:16;7.80;52.60
20284;DHT22;10301;50.832;4.080;2023-04-30T04:32:41;7.70;50.90
20284;DHT22;10301;50.832;4.080;2023-04-30T04:35:13;7.60;55.50
20284;DHT22;10301;50.832;4.080;2023-04-30T04:37:39;7.60;57.70
20284;DHT22;10301;50.832;4.080;2023-04-30T04:40:05;7.60;58.30
20284;DHT22;10301;50.832;4.080;2023-04-30T04:42:31;7.70;56.10
20284;DHT22;10301;50.832;4.080;2023-04-30T04:44:57;7.70;58.70
20284;DHT22;10301;50.832;4.080;2023-04-30T04:47:22;7.70;58.20
20284;DHT22;10301;50.832;4.080;2023-04-30T04:49:48;7.80;56.70
20284;DHT22;10301;50.832;4.080;2023-04-30T04:52:14;7.90;58.80
20284;DHT22;10301;50.832;4.080;2023-04-30T04:54:40;8.20;49.70
20284;DHT22;10301;50.832;4.080;2023-04-30T04:57:05;8.40;34.70
20284;DHT22;10301;50.832;4.080;2023-04-30T04:59:31;8.30;25.00
20284;DHT22;10301;50.832;4.080;2023-04-30T05:01:57;8.30;31.70
20284;DHT22;10301;50.832;4.080;2023-04-30T05:04:22;8.30;33.30
20284;DHT22;10301;50.832;4.080;2023-04-30T05:06:48;8.30;36.00
20284;DHT22;10301;50.832;4.080;2023-04-30T05:09:14;8.40;33.40
20284;DHT22;10301;50.832;4.080;2023-04-30T05:11:40;8.50;34.30
20284;DHT22;10301;50.832;4.080;2023-04-30T05:14:06;8.50;31.70
20284;DHT22;10301;50.832;4.080;2023-04-30T05:16:32;8.50;30.70
20284;DHT22;10301;50.832;4.080;2023-04-30T05:18:58;8.60;35.10
20284;DHT22;10301;50.832;4.080;2023-04-30T05:21:23;8.70;34.30
20284;DHT22;10301;50.832;4.080;2023-04-30T05:23:53;8.90;29.30
20284;DHT22;10301;50.832;4.080;2023-04-30T05:26:19;9.10;17.60
20284;DHT22;10301;50.832;4.080;2023-04-30T05:28:45;9.10;8.50
20284;DHT22;10301;50.832;4.080;2023-04-30T05:31:11;9.10;13.10
20284;DHT22;10301;50.832;4.080;2023-04-30T05:33:36;9.10;18.90
20284;DHT22;10301;50.832;4.080;2023-04-30T05:36:02;9.00;29.40
20284;DHT22;10301;50.832;4.080;2023-04-30T05:38:28;8.90;35.70
20284;DHT22;10301;50.832;4.080;2023-04-30T05:40:53;9.10;41.90
20284;DHT22;10301;50.832;4.080;2023-04-30T05:43:19;9.20;37.50
20284;DHT22;10301;50.832;4.080;2023-04-30T05:45:45;9.30;37.00
20284;DHT22;10301;50.832;4.080;2023-04-30T05:48:10;9.30;33.50
20284;DHT22;10301;50.832;4.080;2023-04-30T05:50:36;9.50;30.00
20284;DHT22;10301;50.832;4.080;2023-04-30T05:53:02;9.60;28.80
20284;DHT22;10301;50.832;4.080;2023-04-30T05:55:27;9.90;23.60
20284;DHT22;10301;50.832;4.080;2023-04-30T05:57:53;10.10;2.30
20284;DHT22;10301;50.832;4.080;2023-04-30T06:00:18;10.10;1.00
20284;DHT22;10301;50.832;4.080;2023-04-30T06:02:44;10.00;6.00
20284;DHT22;10301;50.832;4.080;2023-04-30T06:05:10;10.00;13.90
20284;DHT22;10301;50.832;4.080;2023-04-30T06:07:36;10.00;13.50
20284;DHT22;10301;50.832;4.080;2023-04-30T06:10:02;9.80;24.80
20284;DHT22;10301;50.832;4.080;2023-04-30T06:12:28;9.80;35.30
20284;DHT22;10301;50.832;4.080;2023-04-30T06:14:53;9.80;41.40
20284;DHT22;10301;50.832;4.080;2023-04-30T06:17:19;9.80;48.20
20284;DHT22;10301;50.832;4.080;2023-04-30T06:19:45;10.00;51.80
20284;DHT22;10301;50.832;4.080;2023-04-30T06:22:12;10.00;42.80
20284;DHT22;10301;50.832;4.080;2023-04-30T06:24:37;10.10;51.80
20284;DHT22;10301;50.832;4.080;2023-04-30T06:27:03;10.40;40.30
20284;DHT22;10301;50.832;4.080;2023-04-30T06:29:29;10.50;42.70
20284;DHT22;10301;50.832;4.080;2023-04-30T06:31:55;10.60;32.00
20284;DHT22;10301;50.832;4.080;2023-04-30T06:34:20;10.60;35.70
20284;DHT22;10301;50.832;4.080;2023-04-30T06:36:46;10.90;39.80
20284;DHT22;10301;50.832;4.080;2023-04-30T06:39:15;11.20;28.20
20284;DHT22;10301;50.832;4.080;2023-04-30T06:41:41;11.30;10.70
20284;DHT22;10301;50.832;4.080;2023-04-30T06:44:10;11.50;1.00
20284;DHT22;10301;50.832;4.080;2023-04-30T06:46:35;11.60;1.00
20284;DHT22;10301;50.832;4.080;2023-04-30T06:49:01;11.80;1.00
20284;DHT22;10301;50.832;4.080;2023-04-30T06:51:27;11.90;1.00
20284;DHT22;10301;50.832;4.080;2023-04-30T06:53:52;12.10;1.00
20284;DHT22;10301;50.832;4.080;2023-04-30T06:56:18;12.20;1.00
20284;DHT22;10301;50.832;4.080;2023-04-30T06:58:46;12.40;1.00
20284;DHT22;10301;50.832;4.080;2023-04-30T07:01:12;12.40;1.00
20284;DHT22;10301;50.832;4.080;2023-04-30T07:03:38;12.50;1.00
20284;DHT22;10301;50.832;4.080;2023-04-30T07:06:04;12.30;1.00
20284;DHT22;10301;50.832;4.080;2023-04-30T07:08:29;12.10;1.00
20284;DHT22;10301;50.832;4.080;2023-04-30T07:10:55;12.00;1.00
20284;DHT22;10301;50.832;4.080;2023-04-30T07:13:21;12.00;1.00
20284;DHT22;10301;50.832;4.080;2023-04-30T07:15:47;11.90;1.00
20284;DHT22;10301;50.832;4.080;2023-04-30T07:18:12;11.90;1.50
20284;DHT22;10301;50.832;4.080;2023-04-30T07:20:38;12.30;1.00
20284;DHT22;10301;50.832;4.080;2023-04-30T07:23:04;12.40;1.00
20284;DHT22;10301;50.832;4.080;2023-04-30T07:25:29;12.40;1.00
20284;DHT22;10301;50.832;4.080;2023-04-30T07:27:55;12.40;1.00
20284;DHT22;10301;50.832;4.080;2023-04-30T07:30:21;12.60;1.00
20284;DHT22;10301;50.832;4.080;2023-04-30T07:32:47;12.50;1.00
20284;DHT22;10301;50.832;4.080;2023-04-30T07:35:13;12.30;1.00
20284;DHT22;10301;50.832;4.080;2023-04-30T07:37:39;12.30;1.00
20284;DHT22;10301;50.832;4.080;2023-04-30T07:40:06;12.50;1.00
20284;DHT22;10301;50.832;4.080;2023-04-30T07:42:33;12.60;1.00
20284;DHT22;10301;50.832;4.080;2023-04-30T07:44:59;12.80;1.00
20284;DHT22;10301;50.832;4.080;2023-04-30T07:47:25;13.10;1.00
20284;DHT22;10301;50.832;4.080;2023-04-30T07:49:51;13.20;1.00
20284;DHT22;10301;50.832;4.080;2023-04-30T07:52:17;13.30;1.00
20284;DHT22;10301;50.832;4.080;2023-04-30T07:54:42;13.40;1.00
20284;DHT22;10301;50.832;4.080;2023-04-30T07:57:08;13.50;1.00
20284;DHT22;10301;50.832;4.080;2023-04-30T07:59:34;13.50;1.00
20284;DHT22;10301;50.832;4.080;2023-04-30T08:02:00;13.60;1.00
20284;DHT22;10301;50.832;4.080;2023-04-30T08:04:26;13.50;1.00
20284;DHT22;10301;50.832;4.080;2023-04-30T08:06:51;13.40;1.00
20284;DHT22;10301;50.832;4.080;2023-04-30T08:09:17;13.50;1.00
20284;DHT22;10301;50.832;4.080;2023-04-30T08:11:42;13.20;1.00
20284;DHT22;10301;50.832;4.080;2023-04-30T08:14:08;13.50;1.00
20284;DHT22;10301;50.832;4.080;2023-04-30T08:16:34;13.60;1.00
20284;DHT22;10301;50.832;4.080;2023-04-30T08:19:00;13.80;1.00
20284;DHT22;10301;50.832;4.080;2023-04-30T08:21:26;13.90;1.00
20284;DHT22;10301;50.832;4.080;2023-04-30T08:23:55;14.20;1.00
20284;DHT22;10301;50.832;4.080;2023-04-30T08:26:21;14.60;1.00
20284;DHT22;10301;50.832;4.080;2023-04-30T08:28:48;14.40;1.00
20284;DHT22;10301;50.832;4.080;2023-04-30T08:31:13;14.50;1.00
20284;DHT22;10301;50.832;4.080;2023-04-30T08:33:39;14.70;1.00
20284;DHT22;10301;50.832;4.080;2023-04-30T08:36:05;14.80;1.00
20284;DHT22;10301;50.832;4.080;2023-04-30T08:38:31;14.80;1.00
20284;DHT22;10301;50.832;4.080;2023-04-30T08:41:13;14.70;1.00
20284;DHT22;10301;50.832;4.080;2023-04-30T08:43:41;14.60;1.00
20284;DHT22;10301;50.832;4.080;2023-04-30T08:46:07;14.80;1.00
20284;DHT22;10301;50.832;4.080;2023-04-30T08:48:33;15.00;1.00
20284;DHT22;10301;50.832;4.080;2023-04-30T08:51:03;15.30;1.00
20284;DHT22;10301;50.832;4.080;2023-04-30T08:53:29;15.10;1.00
20284;DHT22;10301;50.832;4.080;2023-04-30T08:55:56;15.10;1.00
20284;DHT22;10301;50.832;4.080;2023-04-30T08:58:22;15.10;1.00
20284;DHT22;10301;50.832;4.080;2023-04-30T09:00:48;15.30;99.90
20284;DHT22;10301;50.832;4.080;2023-04-30T09:03:13;15.50;1.00
20284;DHT22;10301;50.832;4.080;2023-04-30T09:05:39;15.60;1.00
20284;DHT22;10301;50.832;4.080;2023-04-30T09:08:07;15.80;99.90
20284;DHT22;10301;50.832;4.080;2023-04-30T09:10:35;15.90;1.00
20284;DHT22;10301;50.832;4.080;2023-04-30T09:13:06;15.60;1.00
20284;DHT22;10301;50.832;4.080;2023-04-30T09:15:33;15.30;99.90
20284;DHT22;10301;50.832;4.080;2023-04-30T09:18:18;15.40;29.10
20284;DHT22;10301;50.832;4.080;2023-04-30T09:20:59;15.60;1.00
20284;DHT22;10301;50.832;4.080;2023-04-30T09:23:28;15.80;1.00
20284;DHT22;10301;50.832;4.080;2023-04-30T09:25:54;15.80;99.90
20284;DHT22;10301;50.832;4.080;2023-04-30T09:28:22;15.80;99.90
20284;DHT22;10301;50.832;4.080;2023-04-30T09:30:50;15.80;1.00
20284;DHT22;10301;50.832;4.080;2023-04-30T09:33:16;16.00;99.90
20284;DHT22;10301;50.832;4.080;2023-04-30T09:35:42;16.20;1.00
20284;DHT22;10301;50.832;4.080;2023-04-30T09:38:27;16.50;99.90
20284;DHT22;10301;50.832;4.080;2023-04-30T09:40:53;16.50;99.90
20284;DHT22;10301;50.832;4.080;2023-04-30T09:43:20;16.30;1.00
20284;DHT22;10301;50.832;4.080;2023-04-30T09:45:46;16.30;1.00
20284;DHT22;10301;50.832;4.080;2023-04-30T09:48:24;16.40;1.00
20284;DHT22;10301;50.832;4.080;2023-04-30T09:50:50;16.50;1.00
20284;DHT22;10301;50.832;4.080;2023-04-30T09:53:19;16.70;1.00
20284;DHT22;10301;50.832;4.080;2023-04-30T09:55:46;16.80;1.00
20284;DHT22;10301;50.832;4.080;2023-04-30T09:58:13;16.70;22.80
20284;DHT22;10301;50.832;4.080;2023-04-30T10:00:39;17.00;99.90
20284;DHT22;10301;50.832;4.080;2023-04-30T10:03:08;17.20;1.00
20284;DHT22;10301;50.832;4.080;2023-04-30T10:05:40;17.30;99.90
20284;DHT22;10301;50.832;4.080;2023-04-30T10:08:12;17.10;1.00
20284;DHT22;10301;50.832;4.080;2023-04-30T10:10:39;16.80;1.00
20284;DHT22;10301;50.832;4.080;2023-04-30T10:13:10;16.90;1.00
20284;DHT22;10301;50.832;4.080;2023-04-30T10:15:42;17.20;1.00
20284;DHT22;10301;50.832;4.080;2023-04-30T10:18:30;17.60;1.00
20284;DHT22;10301;50.832;4.080;2023-04-30T10:20:58;17.30;1.00
20284;DHT22;10301;50.832;4.080;2023-04-30T10:23:28;17.50;1.00
20284;DHT22;10301;50.832;4.080;2023-04-30T10:25:56;17.50;1.00
20284;DHT22;10301;50.832;4.080;2023-04-30T10:28:24;17.70;1.00
20284;DHT22;10301;50.832;4.080;2023-04-30T10:30:50;17.90;99.90
20284;DHT22;10301;50.832;4.080;2023-04-30T10:33:22;18.10;1.00
20284;DHT22;10301;50.832;4.080;2023-04-30T10:36:02;18.50;99.90
20284;DHT22;10301;50.832;4.080;2023-04-30T10:38:29;18.00;1.00
20284;DHT22;10301;50.832;4.080;2023-04-30T10:40:58;17.90;1.00
20284;DHT22;10301;50.832;4.080;2023-04-30T10:43:24;17.90;1.00
20284;DHT22;10301;50.832;4.080;2023-04-30T10:45:50;18.10;1.00
20284;DHT22;10301;50.832;4.080;2023-04-30T10:48:16;18.00;1.00
20284;DHT22;10301;50.832;4.080;2023-04-30T10:50:51;17.90;60.90
20284;DHT22;10301;50.832;4.080;2023-04-30T10:53:18;17.70;99.90
20284;DHT22;10301;50.832;4.080;2023-04-30T10:55:53;17.70;1.00
20284;DHT22;10301;50.832;4.080;2023-04-30T10:58:23;18.00;99.90
20284;DHT22;10301;50.832;4.080;2023-04-30T11:03:29;18.50;1.00
20284;DHT22;10301;50.832;4.080;2023-04-30T11:05:55;18.80;1.00
20284;DHT22;10301;50.832;4.080;2023-04-30T11:08:37;19.20;1.00
20284;DHT22;10301;50.832;4.080;2023-04-30T11:11:04;18.90;1.00
20284;DHT22;10301;50.832;4.080;2023-04-30T11:13:46;18.50;99.90
20284;DHT22;10301;50.832;4.080;2023-04-30T11:16:14;18.20;1.00
20284;DHT22;10301;50.832;4.080;2023-04-30T11:18:44;18.10;1.00
20284;DHT22;10301;50.832;4.080;2023-04-30T11:21:11;18.30;1.00
20284;DHT22;10301;50.832;4.080;2023-04-30T11:23:40;18.70;1.00
20284;DHT22;10301;50.832;4.080;2023-04-30T11:26:08;18.30;1.00
20284;DHT22;10301;50.832;4.080;2023-04-30T11:28:34;18.50;1.00
20284;DHT22;10301;50.832;4.080;2023-04-30T11:31:00;18.50;1.00
20284;DHT22;10301;50.832;4.080;2023-04-30T11:33:28;18.30;1.00
20284;DHT22;10301;50.832;4.080;2023-04-30T11:35:55;18.30;1.00
20284;DHT22;10301;50.832;4.080;2023-04-30T11:38:42;18.30;13.90
20284;DHT22;10301;50.832;4.080;2023-04-30T11:41:11;18.00;99.90
20284;DHT22;10301;50.832;4.080;2023-04-30T11:43:37;17.80;1.00
20284;DHT22;10301;50.832;4.080;2023-04-30T11:46:04;17.90;99.90
20284;DHT22;10301;50.832;4.080;2023-04-30T11:48:35;18.20;1.00
20284;DHT22;10301;50.832;4.080;2023-04-30T11:51:14;18.30;1.00
20284;DHT22;10301;50.832;4.080;2023-04-30T11:53:40;18.00;67.90
20284;DHT22;10301;50.832;4.080;2023-04-30T11:56:06;18.00;1.00
20284;DHT22;10301;50.832;4.080;2023-04-30T11:58:33;18.10;1.00
20284;DHT22;10301;50.832;4.080;2023-04-30T12:01:00;18.40;1.00
20284;DHT22;10301;50.832;4.080;2023-04-30T12:03:26;18.90;99.90
20284;DHT22;10301;50.832;4.080;2023-04-30T12:05:51;19.20;1.00
20284;DHT22;10301;50.832;4.080;2023-04-30T12:08:18;19.30;1.00
20284;DHT22;10301;50.832;4.080;2023-04-30T12:10:44;19.40;1.00
20284;DHT22;10301;50.832;4.080;2023-04-30T12:13:13;19.50;1.00
20284;DHT22;10301;50.832;4.080;2023-04-30T12:15:38;19.10;1.00
20284;DHT22;10301;50.832;4.080;2023-04-30T12:18:11;18.80;1.00
20284;DHT22;10301;50.832;4.080;2023-04-30T12:20:38;18.80;37.00
20284;DHT22;10301;50.832;4.080;2023-04-30T12:23:05;19.10;1.00
20284;DHT22;10301;50.832;4.080;2023-04-30T12:25:39;19.20;1.00
20284;DHT22;10301;50.832;4.080;2023-04-30T12:28:05;18.70;31.10
20284;DHT22;10301;50.832;4.080;2023-04-30T12:30:31;18.60;1.00
20284;DHT22;10301;50.832;4.080;2023-04-30T12:32:58;18.60;1.00
20284;DHT22;10301;50.832;4.080;2023-04-30T12:35:28;18.80;1.00
20284;DHT22;10301;50.832;4.080;2023-04-30T12:38:02;19.10;1.00
20284;DHT22;10301;50.832;4.080;2023-04-30T12:40:28;19.20;1.00
20284;DHT22;10301;50.832;4.080;2023-04-30T12:48:15;19.40;1.00
20284;DHT22;10301;50.832;4.080;2023-04-30T12:50:45;19.50;1.00
20284;DHT22;10301;50.832;4.080;2023-04-30T12:53:11;19.50;99.90
20284;DHT22;10301;50.832;4.080;2023-04-30T12:55:37;19.40;1.00
20284;DHT22;10301;50.832;4.080;2023-04-30T12:58:07;19.10;1.00
20284;DHT22;10301;50.832;4.080;2023-04-30T13:03:08;19.70;1.00
20284;DHT22;10301;50.832;4.080;2023-04-30T13:05:34;19.70;1.00
20284;DHT22;10301;50.832;4.080;2023-04-30T13:08:03;19.60;1.00
20284;DHT22;10301;50.832;4.080;2023-04-30T13:10:31;19.20;1.00
20284;DHT22;10301;50.832;4.080;2023-04-30T13:12:57;18.90;1.00
20284;DHT22;10301;50.832;4.080;2023-04-30T13:15:22;19.10;1.00
20284;DHT22;10301;50.832;4.080;2023-04-30T13:17:48;19.40;1.00
20284;DHT22;10301;50.832;4.080;2023-04-30T13:20:17;19.70;1.00
20284;DHT22;10301;50.832;4.080;2023-04-30T13:22:43;20.10;99.90
20284;DHT22;10301;50.832;4.080;2023-04-30T13:25:09;19.90;99.90
20284;DHT22;10301;50.832;4.080;2023-04-30T13:27:34;19.90;99.90
20284;DHT22;10301;50.832;4.080;2023-04-30T13:30:01;19.90;99.90
20284;DHT22;10301;50.832;4.080;2023-04-30T13:32:28;20.00;99.90
20284;DHT22;10301;50.832;4.080;2023-04-30T13:34:54;19.90;99.90
20284;DHT22;10301;50.832;4.080;2023-04-30T13:37:21;19.90;99.90
20284;DHT22;10301;50.832;4.080;2023-04-30T13:39:46;20.40;99.90
20284;DHT22;10301;50.832;4.080;2023-04-30T13:42:15;21.00;99.90
20284;DHT22;10301;50.832;4.080;2023-04-30T13:44:41;21.70;1.00
20284;DHT22;10301;50.832;4.080;2023-04-30T13:47:06;22.00;1.00
20284;DHT22;10301;50.832;4.080;2023-04-30T13:49:34;22.30;1.00
20284;DHT22;10301;50.832;4.080;2023-04-30T13:52:01;22.50;1.00
20284;DHT22;10301;50.832;4.080;2023-04-30T13:54:27;22.70;1.00
20284;DHT22;10301;50.832;4.080;2023-04-30T13:56:53;22.90;1.00
20284;DHT22;10301;50.832;4.080;2023-04-30T13:59:18;23.00;1.00
20284;DHT22;10301;50.832;4.080;2023-04-30T14:01:44;22.80;1.00
20284;DHT22;10301;50.832;4.080;2023-04-30T14:04:10;22.70;1.00
20284;DHT22;10301;50.832;4.080;2023-04-30T14:06:36;22.30;1.00
20284;DHT22;10301;50.832;4.080;2023-04-30T14:09:03;22.00;1.00
20284;DHT22;10301;50.832;4.080;2023-04-30T14:11:28;22.20;1.00
20284;DHT22;10301;50.832;4.080;2023-04-30T14:13:54;22.20;1.00
20284;DHT22;10301;50.832;4.080;2023-04-30T14:16:20;22.20;1.00
20284;DHT22;10301;50.832;4.080;2023-04-30T14:18:46;22.10;1.00
20284;DHT22;10301;50.832;4.080;2023-04-30T14:21:12;22.10;1.00
20284;DHT22;10301;50.832;4.080;2023-04-30T14:23:38;21.90;1.00
20284;DHT22;10301;50.832;4.080;2023-04-30T14:26:04;21.90;1.00
20284;DHT22;10301;50.832;4.080;2023-04-30T14:28:30;21.80;1.00
20284;DHT22;10301;50.832;4.080;2023-04-30T14:30:56;21.60;1.00
20284;DHT22;10301;50.832;4.080;2023-04-30T14:33:21;21.30;1.00
20284;DHT22;10301;50.832;4.080;2023-04-30T14:35:47;20.70;91.10
20284;DHT22;10301;50.832;4.080;2023-04-30T14:38:14;20.30;20.30
20284;DHT22;10301;50.832;4.080;2023-04-30T14:40:39;20.30;1.00
20284;DHT22;10301;50.832;4.080;2023-04-30T14:43:05;20.80;19.70
20284;DHT22;10301;50.832;4.080;2023-04-30T14:45:34;21.30;5.10
20284;DHT22;10301;50.832;4.080;2023-04-30T14:48:00;21.80;1.00
20284;DHT22;10301;50.832;4.080;2023-04-30T14:50:26;22.30;1.00
20284;DHT22;10301;50.832;4.080;2023-04-30T14:52:52;22.60;1.00
20284;DHT22;10301;50.832;4.080;2023-04-30T14:55:17;22.80;1.00
20284;DHT22;10301;50.832;4.080;2023-04-30T14:57:43;23.10;1.00
20284;DHT22;10301;50.832;4.080;2023-04-30T15:00:09;23.20;1.00
20284;DHT22;10301;50.832;4.080;2023-04-30T15:02:36;23.30;1.00
20284;DHT22;10301;50.832;4.080;2023-04-30T15:05:03;23.00;1.00
20284;DHT22;10301;50.832;4.080;2023-04-30T15:07:29;23.00;1.00
20284;DHT22;10301;50.832;4.080;2023-04-30T15:09:55;22.60;1.00
20284;DHT22;10301;50.832;4.080;2023-04-30T15:12:20;22.40;1.00
20284;DHT22;10301;50.832;4.080;2023-04-30T15:14:47;22.30;1.00
20284;DHT22;10301;50.832;4.080;2023-04-30T15:17:13;21.70;1.00
20284;DHT22;10301;50.832;4.080;2023-04-30T15:19:39;21.60;1.00
20284;DHT22;10301;50.832;4.080;2023-04-30T15:22:07;21.10;1.00
20284;DHT22;10301;50.832;4.080;2023-04-30T15:24:33;20.90;1.00
20284;DHT22;10301;50.832;4.080;2023-04-30T15:26:59;21.00;1.00
20284;DHT22;10301;50.832;4.080;2023-04-30T15:29:24;21.00;1.00
20284;DHT22;10301;50.832;4.080;2023-04-30T15:31:50;21.40;1.00
20284;DHT22;10301;50.832;4.080;2023-04-30T15:34:17;21.70;1.00
20284;DHT22;10301;50.832;4.080;2023-04-30T15:36:42;22.10;1.00
20284;DHT22;10301;50.832;4.080;2023-04-30T15:39:08;22.60;1.00
20284;DHT22;10301;50.832;4.080;2023-04-30T15:41:33;21.90;1.00
20284;DHT22;10301;50.832;4.080;2023-04-30T15:43:59;22.10;1.00
20284;DHT22;10301;50.832;4.080;2023-04-30T15:46:25;22.40;1.00
20284;DHT22;10301;50.832;4.080;2023-04-30T15:48:51;22.60;1.00
20284;DHT22;10301;50.832;4.080;2023-04-30T15:51:16;22.60;1.00
20284;DHT22;10301;50.832;4.080;2023-04-30T15:53:43;22.60;1.00
20284;DHT22;10301;50.832;4.080;2023-04-30T15:56:09;22.50;1.00
20284;DHT22;10301;50.832;4.080;2023-04-30T15:58:35;22.30;1.00
20284;DHT22;10301;50.832;4.080;2023-04-30T16:01:00;22.10;1.00
20284;DHT22;10301;50.832;4.080;2023-04-30T16:03:26;21.90;1.00
20284;DHT22;10301;50.832;4.080;2023-04-30T16:05:53;21.80;1.00
20284;DHT22;10301;50.832;4.080;2023-04-30T16:08:18;22.00;1.00